sensor_id;sensor_type;location;lat;lon;timestamp;P1;durP1;ratioP1;P2;durP2;ratioP2
16804;SDS011;8520;50.102;20.010;2023-06-10T00:00:08;104.80;;;98.60;;
16804;SDS011;8520;50.102;20.010;2023-06-10T00:02:40;106.15;;;99.95;;
16804;SDS011;8520;50.102;20.010;2023-06-10T00:05:09;106.60;;;100.35;;
16804;SDS011;8520;50.102;20.010;2023-06-10T00:07:37;106.68;;;100.47;;
16804;SDS011;8520;50.102;20.010;2023-06-10T00:10:08;106.95;;;100.53;;
16804;SDS011;8520;50.102;20.010;2023-06-10T00:12:37;108.35;;;101.75;;
16804;SDS011;8520;50.102;20.010;2023-06-10T00:15:06;108.82;;;101.95;;
16804;SDS011;8520;50.102;20.010;2023-06-10T00:17:35;108.13;;;101.75;;
16804;SDS011;8520;50.102;20.010;2023-06-10T00:20:08;108.50;;;101.97;;
16804;SDS011;8520;50.102;20.010;2023-06-10T00:22:39;110.25;;;103.47;;
16804;SDS011;8520;50.102;20.010;2023-06-10T00:25:08;109.20;;;102.60;;
16804;SDS011;8520;50.102;20.010;2023-06-10T00:27:37;108.63;;;102.32;;
16804;SDS011;8520;50.102;20.010;2023-06-10T00:30:07;108.38;;;102.20;;
16804;SDS011;8520;50.102;20.010;2023-06-10T00:32:36;107.60;;;101.35;;
16804;SDS011;8520;50.102;20.010;2023-06-10T00:35:05;108.15;;;101.57;;
16804;SDS011;8520;50.102;20.010;2023-06-10T00:37:35;107.65;;;101.32;;
16804;SDS011;8520;50.102;20.010;2023-06-10T00:40:05;108.03;;;101.82;;
16804;SDS011;8520;50.102;20.010;2023-06-10T00:42:36;108.60;;;102.40;;
16804;SDS011;8520;50.102;20.010;2023-06-10T00:45:05;109.05;;;102.60;;
16804;SDS011;8520;50.102;20.010;2023-06-10T00:47:35;109.38;;;102.50;;
16804;SDS011;8520;50.102;20.010;2023-06-10T00:50:04;107.72;;;101.38;;
16804;SDS011;8520;50.102;20.010;2023-06-10T00:52:35;108.75;;;102.13;;
16804;SDS011;8520;50.102;20.010;2023-06-10T00:55:04;109.93;;;103.63;;
16804;SDS011;8520;50.102;20.010;2023-06-10T00:57:34;110.18;;;103.60;;
16804;SDS011;8520;50.102;20.010;2023-06-10T01:00:04;110.07;;;103.35;;
16804;SDS011;8520;50.102;20.010;2023-06-10T01:02:35;109.97;;;103.32;;
16804;SDS011;8520;50.102;20.010;2023-06-10T01:05:05;110.93;;;104.47;;
16804;SDS011;8520;50.102;20.010;2023-06-10T01:07:40;111.32;;;104.53;;
16804;SDS011;8520;50.102;20.010;2023-06-10T01:10:16;112.47;;;105.78;;
16804;SDS011;8520;50.102;20.010;2023-06-10T01:12:52;109.85;;;103.43;;
16804;SDS011;8520;50.102;20.010;2023-06-10T01:15:26;110.70;;;104.05;;
16804;SDS011;8520;50.102;20.010;2023-06-10T01:17:54;110.63;;;103.95;;
16804;SDS011;8520;50.102;20.010;2023-06-10T01:20:25;111.22;;;104.53;;
16804;SDS011;8520;50.102;20.010;2023-06-10T01:22:57;109.68;;;102.97;;
16804;SDS011;8520;50.102;20.010;2023-06-10T01:25:27;111.38;;;104.68;;
16804;SDS011;8520;50.102;20.010;2023-06-10T01:28:02;111.80;;;105.18;;
16804;SDS011;8520;50.102;20.010;2023-06-10T01:30:37;111.32;;;104.80;;
16804;SDS011;8520;50.102;20.010;2023-06-10T01:33:12;110.30;;;103.80;;
16804;SDS011;8520;50.102;20.010;2023-06-10T01:35:45;112.10;;;105.05;;
16804;SDS011;8520;50.102;20.010;2023-06-10T01:38:17;112.47;;;105.65;;
16804;SDS011;8520;50.102;20.010;2023-06-10T01:40:48;112.57;;;105.78;;
16804;SDS011;8520;50.102;20.010;2023-06-10T01:43:17;111.60;;;104.75;;
16804;SDS011;8520;50.102;20.010;2023-06-10T01:45:45;111.15;;;104.45;;
16804;SDS011;8520;50.102;20.010;2023-06-10T01:48:13;111.57;;;104.80;;
16804;SDS011;8520;50.102;20.010;2023-06-10T01:50:41;109.05;;;102.55;;
16804;SDS011;8520;50.102;20.010;2023-06-10T01:53:10;110.68;;;103.97;;
16804;SDS011;8520;50.102;20.010;2023-06-10T01:55:40;110.63;;;103.93;;
16804;SDS011;8520;50.102;20.010;2023-06-10T01:58:08;110.55;;;104.15;;
16804;SDS011;8520;50.102;20.010;2023-06-10T02:00:36;108.10;;;101.60;;
16804;SDS011;8520;50.102;20.010;2023-06-10T02:03:04;108.50;;;102.15;;
16804;SDS011;8520;50.102;20.010;2023-06-10T02:05:34;109.80;;;102.90;;
16804;SDS011;8520;50.102;20.010;2023-06-10T02:08:05;107.90;;;101.50;;
16804;SDS011;8520;50.102;20.010;2023-06-10T02:10:33;107.97;;;101.55;;
16804;SDS011;8520;50.102;20.010;2023-06-10T02:13:03;107.43;;;101.10;;
16804;SDS011;8520;50.102;20.010;2023-06-10T02:15:31;107.90;;;101.50;;
16804;SDS011;8520;50.102;20.010;2023-06-10T02:18:00;107.00;;;100.80;;
16804;SDS011;8520;50.102;20.010;2023-06-10T02:20:29;107.22;;;100.82;;
16804;SDS011;8520;50.102;20.010;2023-06-10T02:22:58;107.75;;;101.00;;
16804;SDS011;8520;50.102;20.010;2023-06-10T02:25:28;107.55;;;101.15;;
16804;SDS011;8520;50.102;20.010;2023-06-10T02:27:56;106.35;;;100.07;;
16804;SDS011;8520;50.102;20.010;2023-06-10T02:30:25;106.00;;;99.70;;
16804;SDS011;8520;50.102;20.010;2023-06-10T02:32:54;106.63;;;100.40;;
16804;SDS011;8520;50.102;20.010;2023-06-10T02:35:24;104.85;;;98.60;;
16804;SDS011;8520;50.102;20.010;2023-06-10T02:37:53;104.60;;;98.05;;
16804;SDS011;8520;50.102;20.010;2023-06-10T02:40:21;105.50;;;99.30;;
16804;SDS011;8520;50.102;20.010;2023-06-10T02:42:50;103.72;;;97.72;;
16804;SDS011;8520;50.102;20.010;2023-06-10T02:45:18;103.72;;;97.63;;
16804;SDS011;8520;50.102;20.010;2023-06-10T02:47:48;103.00;;;96.95;;
16804;SDS011;8520;50.102;20.010;2023-06-10T02:50:16;101.55;;;95.60;;
16804;SDS011;8520;50.102;20.010;2023-06-10T02:53:01;101.65;;;95.47;;
16804;SDS011;8520;50.102;20.010;2023-06-10T02:55:31;101.38;;;95.65;;
16804;SDS011;8520;50.102;20.010;2023-06-10T02:58:02;102.18;;;96.43;;
16804;SDS011;8520;50.102;20.010;2023-06-10T03:00:30;102.05;;;96.15;;
16804;SDS011;8520;50.102;20.010;2023-06-10T03:03:00;103.43;;;97.18;;
16804;SDS011;8520;50.102;20.010;2023-06-10T03:05:34;103.22;;;96.90;;
16804;SDS011;8520;50.102;20.010;2023-06-10T03:08:04;102.15;;;96.32;;
16804;SDS011;8520;50.102;20.010;2023-06-10T03:10:35;102.72;;;96.50;;
16804;SDS011;8520;50.102;20.010;2023-06-10T03:13:04;103.72;;;97.72;;
16804;SDS011;8520;50.102;20.010;2023-06-10T03:15:32;102.95;;;96.97;;
16804;SDS011;8520;50.102;20.010;2023-06-10T03:18:05;103.82;;;97.78;;
16804;SDS011;8520;50.102;20.010;2023-06-10T03:20:35;102.85;;;96.72;;
16804;SDS011;8520;50.102;20.010;2023-06-10T03:23:07;101.47;;;95.60;;
16804;SDS011;8520;50.102;20.010;2023-06-10T03:25:36;102.03;;;96.10;;
16804;SDS011;8520;50.102;20.010;2023-06-10T03:28:05;102.78;;;96.70;;
16804;SDS011;8520;50.102;20.010;2023-06-10T03:30:35;101.00;;;95.35;;
16804;SDS011;8520;50.102;20.010;2023-06-10T03:33:03;100.90;;;94.93;;
16804;SDS011;8520;50.102;20.010;2023-06-10T03:35:33;99.05;;;93.38;;
16804;SDS011;8520;50.102;20.010;2023-06-10T03:38:04;99.70;;;93.90;;
16804;SDS011;8520;50.102;20.010;2023-06-10T03:40:32;98.53;;;92.68;;
16804;SDS011;8520;50.102;20.010;2023-06-10T03:43:01;96.00;;;90.45;;
16804;SDS011;8520;50.102;20.010;2023-06-10T03:45:30;97.28;;;91.18;;
16804;SDS011;8520;50.102;20.010;2023-06-10T03:47:59;95.97;;;90.30;;
16804;SDS011;8520;50.102;20.010;2023-06-10T03:50:41;93.65;;;88.15;;
16804;SDS011;8520;50.102;20.010;2023-06-10T03:53:09;91.53;;;86.30;;
16804;SDS011;8520;50.102;20.010;2023-06-10T03:55:40;91.82;;;86.40;;
16804;SDS011;8520;50.102;20.010;2023-06-10T03:58:08;90.32;;;84.75;;
16804;SDS011;8520;50.102;20.010;2023-06-10T04:00:40;88.15;;;83.25;;
16804;SDS011;8520;50.102;20.010;2023-06-10T04:03:09;86.38;;;81.57;;
16804;SDS011;8520;50.102;20.010;2023-06-10T04:05:51;85.80;;;80.85;;
16804;SDS011;8520;50.102;20.010;2023-06-10T04:08:19;84.90;;;80.07;;
16804;SDS011;8520;50.102;20.010;2023-06-10T04:10:48;83.68;;;78.88;;
16804;SDS011;8520;50.102;20.010;2023-06-10T04:13:16;80.43;;;75.93;;
16804;SDS011;8520;50.102;20.010;2023-06-10T04:15:52;79.85;;;75.32;;
16804;SDS011;8520;50.102;20.010;2023-06-10T04:18:21;78.53;;;73.97;;
16804;SDS011;8520;50.102;20.010;2023-06-10T04:20:51;76.20;;;71.95;;
16804;SDS011;8520;50.102;20.010;2023-06-10T04:23:19;73.03;;;69.05;;
16804;SDS011;8520;50.102;20.010;2023-06-10T04:25:48;71.20;;;67.40;;
16804;SDS011;8520;50.102;20.010;2023-06-10T04:28:17;69.57;;;66.00;;
16804;SDS011;8520;50.102;20.010;2023-06-10T04:30:45;68.63;;;64.90;;
16804;SDS011;8520;50.102;20.010;2023-06-10T04:33:13;65.57;;;61.88;;
16804;SDS011;8520;50.102;20.010;2023-06-10T04:35:42;64.63;;;61.22;;
16804;SDS011;8520;50.102;20.010;2023-06-10T04:38:14;64.28;;;60.80;;
16804;SDS011;8520;50.102;20.010;2023-06-10T04:40:43;72.53;;;68.13;;
16804;SDS011;8520;50.102;20.010;2023-06-10T04:43:13;76.38;;;71.55;;
16804;SDS011;8520;50.102;20.010;2023-06-10T04:45:44;59.13;;;55.92;;
16804;SDS011;8520;50.102;20.010;2023-06-10T04:48:12;61.97;;;58.30;;
16804;SDS011;8520;50.102;20.010;2023-06-10T04:50:41;56.40;;;53.30;;
16804;SDS011;8520;50.102;20.010;2023-06-10T04:53:10;50.85;;;48.33;;
16804;SDS011;8520;50.102;20.010;2023-06-10T04:55:42;50.00;;;47.40;;
16804;SDS011;8520;50.102;20.010;2023-06-10T04:58:11;48.28;;;45.83;;
16804;SDS011;8520;50.102;20.010;2023-06-10T05:00:39;47.03;;;44.60;;
16804;SDS011;8520;50.102;20.010;2023-06-10T05:03:10;45.92;;;43.50;;
16804;SDS011;8520;50.102;20.010;2023-06-10T05:05:39;44.55;;;42.10;;
16804;SDS011;8520;50.102;20.010;2023-06-10T05:08:07;44.53;;;42.40;;
16804;SDS011;8520;50.102;20.010;2023-06-10T05:10:35;43.88;;;41.47;;
16804;SDS011;8520;50.102;20.010;2023-06-10T05:13:05;42.28;;;40.17;;
16804;SDS011;8520;50.102;20.010;2023-06-10T05:15:33;41.20;;;38.88;;
16804;SDS011;8520;50.102;20.010;2023-06-10T05:18:01;39.45;;;37.25;;
16804;SDS011;8520;50.102;20.010;2023-06-10T05:20:30;38.92;;;36.92;;
16804;SDS011;8520;50.102;20.010;2023-06-10T05:22:58;38.13;;;35.45;;
16804;SDS011;8520;50.102;20.010;2023-06-10T05:25:28;35.00;;;33.20;;
16804;SDS011;8520;50.102;20.010;2023-06-10T05:27:58;34.67;;;33.03;;
16804;SDS011;8520;50.102;20.010;2023-06-10T05:30:27;33.90;;;32.20;;
16804;SDS011;8520;50.102;20.010;2023-06-10T05:32:56;32.78;;;31.15;;
16804;SDS011;8520;50.102;20.010;2023-06-10T05:35:24;32.20;;;30.42;;
16804;SDS011;8520;50.102;20.010;2023-06-10T05:37:52;30.88;;;29.38;;
16804;SDS011;8520;50.102;20.010;2023-06-10T05:40:20;28.75;;;27.45;;
16804;SDS011;8520;50.102;20.010;2023-06-10T05:42:48;28.08;;;26.48;;
16804;SDS011;8520;50.102;20.010;2023-06-10T05:45:16;26.58;;;25.13;;
16804;SDS011;8520;50.102;20.010;2023-06-10T05:47:46;26.58;;;25.27;;
16804;SDS011;8520;50.102;20.010;2023-06-10T05:50:14;24.60;;;23.40;;
16804;SDS011;8520;50.102;20.010;2023-06-10T05:52:43;23.17;;;21.70;;
16804;SDS011;8520;50.102;20.010;2023-06-10T05:55:11;22.70;;;21.52;;
16804;SDS011;8520;50.102;20.010;2023-06-10T05:57:40;20.95;;;19.85;;
16804;SDS011;8520;50.102;20.010;2023-06-10T06:00:10;22.23;;;21.00;;
16804;SDS011;8520;50.102;20.010;2023-06-10T06:02:38;20.33;;;19.33;;
16804;SDS011;8520;50.102;20.010;2023-06-10T06:05:08;21.38;;;20.13;;
16804;SDS011;8520;50.102;20.010;2023-06-10T06:07:37;20.30;;;19.10;;
16804;SDS011;8520;50.102;20.010;2023-06-10T06:10:05;20.20;;;19.10;;
16804;SDS011;8520;50.102;20.010;2023-06-10T06:12:34;19.80;;;18.75;;
16804;SDS011;8520;50.102;20.010;2023-06-10T06:15:03;20.92;;;19.80;;
16804;SDS011;8520;50.102;20.010;2023-06-10T06:17:32;19.35;;;18.10;;
16804;SDS011;8520;50.102;20.010;2023-06-10T06:20:00;19.50;;;18.13;;
16804;SDS011;8520;50.102;20.010;2023-06-10T06:22:30;17.90;;;17.00;;
16804;SDS011;8520;50.102;20.010;2023-06-10T06:24:58;18.23;;;17.10;;
16804;SDS011;8520;50.102;20.010;2023-06-10T06:27:26;18.95;;;17.63;;
16804;SDS011;8520;50.102;20.010;2023-06-10T06:29:55;18.60;;;17.25;;
16804;SDS011;8520;50.102;20.010;2023-06-10T06:32:24;17.77;;;16.77;;
16804;SDS011;8520;50.102;20.010;2023-06-10T06:34:54;17.52;;;16.42;;
16804;SDS011;8520;50.102;20.010;2023-06-10T06:37:22;18.80;;;17.63;;
16804;SDS011;8520;50.102;20.010;2023-06-10T06:40:04;18.10;;;16.90;;
16804;SDS011;8520;50.102;20.010;2023-06-10T06:42:33;18.88;;;17.20;;
16804;SDS011;8520;50.102;20.010;2023-06-10T06:45:14;18.90;;;17.77;;
16804;SDS011;8520;50.102;20.010;2023-06-10T06:47:42;16.40;;;15.50;;
16804;SDS011;8520;50.102;20.010;2023-06-10T06:50:10;16.95;;;16.05;;
16804;SDS011;8520;50.102;20.010;2023-06-10T06:52:39;16.52;;;15.52;;
16804;SDS011;8520;50.102;20.010;2023-06-10T06:55:08;16.45;;;15.55;;
16804;SDS011;8520;50.102;20.010;2023-06-10T06:57:37;15.63;;;14.73;;
16804;SDS011;8520;50.102;20.010;2023-06-10T07:00:05;15.05;;;14.30;;
16804;SDS011;8520;50.102;20.010;2023-06-10T07:02:35;14.43;;;13.48;;
16804;SDS011;8520;50.102;20.010;2023-06-10T07:05:03;15.30;;;14.18;;
16804;SDS011;8520;50.102;20.010;2023-06-10T07:07:34;14.57;;;13.60;;
16804;SDS011;8520;50.102;20.010;2023-06-10T07:10:05;14.05;;;13.10;;
16804;SDS011;8520;50.102;20.010;2023-06-10T07:12:35;13.65;;;12.57;;
16804;SDS011;8520;50.102;20.010;2023-06-10T07:15:03;12.98;;;12.15;;
16804;SDS011;8520;50.102;20.010;2023-06-10T07:17:32;14.15;;;12.90;;
16804;SDS011;8520;50.102;20.010;2023-06-10T07:20:01;12.52;;;11.73;;
16804;SDS011;8520;50.102;20.010;2023-06-10T07:22:29;11.85;;;11.05;;
16804;SDS011;8520;50.102;20.010;2023-06-10T07:24:58;12.38;;;11.73;;
16804;SDS011;8520;50.102;20.010;2023-06-10T07:27:26;12.07;;;11.18;;
16804;SDS011;8520;50.102;20.010;2023-06-10T07:29:55;12.95;;;11.70;;
16804;SDS011;8520;50.102;20.010;2023-06-10T07:32:23;12.32;;;11.30;;
16804;SDS011;8520;50.102;20.010;2023-06-10T07:34:53;12.18;;;11.43;;
16804;SDS011;8520;50.102;20.010;2023-06-10T07:37:21;12.60;;;11.70;;
16804;SDS011;8520;50.102;20.010;2023-06-10T07:39:50;12.32;;;11.45;;
16804;SDS011;8520;50.102;20.010;2023-06-10T07:42:18;12.80;;;11.90;;
16804;SDS011;8520;50.102;20.010;2023-06-10T07:44:46;12.70;;;12.00;;
16804;SDS011;8520;50.102;20.010;2023-06-10T07:47:15;12.00;;;11.18;;
16804;SDS011;8520;50.102;20.010;2023-06-10T07:49:44;11.85;;;10.95;;
16804;SDS011;8520;50.102;20.010;2023-06-10T07:52:12;11.32;;;10.68;;
16804;SDS011;8520;50.102;20.010;2023-06-10T07:54:40;10.82;;;10.23;;
16804;SDS011;8520;50.102;20.010;2023-06-10T07:57:08;11.18;;;10.48;;
16804;SDS011;8520;50.102;20.010;2023-06-10T07:59:37;12.30;;;11.43;;
16804;SDS011;8520;50.102;20.010;2023-06-10T08:02:05;11.65;;;10.95;;
16804;SDS011;8520;50.102;20.010;2023-06-10T08:04:35;11.63;;;10.63;;
16804;SDS011;8520;50.102;20.010;2023-06-10T08:07:03;10.75;;;10.10;;
16804;SDS011;8520;50.102;20.010;2023-06-10T08:09:32;12.05;;;11.10;;
16804;SDS011;8520;50.102;20.010;2023-06-10T08:12:01;11.60;;;10.80;;
16804;SDS011;8520;50.102;20.010;2023-06-10T08:14:30;11.68;;;10.98;;
16804;SDS011;8520;50.102;20.010;2023-06-10T08:16:58;11.65;;;10.68;;
16804;SDS011;8520;50.102;20.010;2023-06-10T08:19:27;10.27;;;9.70;;
16804;SDS011;8520;50.102;20.010;2023-06-10T08:21:56;11.15;;;10.52;;
16804;SDS011;8520;50.102;20.010;2023-06-10T08:24:25;11.30;;;10.70;;
16804;SDS011;8520;50.102;20.010;2023-06-10T08:26:53;11.85;;;11.05;;
16804;SDS011;8520;50.102;20.010;2023-06-10T08:29:21;10.68;;;10.10;;
16804;SDS011;8520;50.102;20.010;2023-06-10T08:31:50;11.38;;;10.45;;
16804;SDS011;8520;50.102;20.010;2023-06-10T08:34:18;11.30;;;10.52;;
16804;SDS011;8520;50.102;20.010;2023-06-10T08:36:46;11.35;;;9.93;;
16804;SDS011;8520;50.102;20.010;2023-06-10T08:39:20;10.75;;;9.95;;
16804;SDS011;8520;50.102;20.010;2023-06-10T08:41:50;9.60;;;9.10;;
16804;SDS011;8520;50.102;20.010;2023-06-10T08:44:28;10.27;;;9.35;;
16804;SDS011;8520;50.102;20.010;2023-06-10T08:46:58;8.73;;;8.23;;
16804;SDS011;8520;50.102;20.010;2023-06-10T08:49:29;9.32;;;8.57;;
16804;SDS011;8520;50.102;20.010;2023-06-10T08:52:00;8.70;;;8.20;;
16804;SDS011;8520;50.102;20.010;2023-06-10T08:54:32;8.68;;;8.07;;
16804;SDS011;8520;50.102;20.010;2023-06-10T08:57:05;9.48;;;8.88;;
16804;SDS011;8520;50.102;20.010;2023-06-10T08:59:33;9.40;;;8.60;;
16804;SDS011;8520;50.102;20.010;2023-06-10T09:02:02;9.18;;;8.48;;
16804;SDS011;8520;50.102;20.010;2023-06-10T09:04:32;9.13;;;8.38;;
16804;SDS011;8520;50.102;20.010;2023-06-10T09:07:00;8.70;;;8.15;;
16804;SDS011;8520;50.102;20.010;2023-06-10T09:09:29;9.30;;;8.52;;
16804;SDS011;8520;50.102;20.010;2023-06-10T09:12:00;8.85;;;8.25;;
16804;SDS011;8520;50.102;20.010;2023-06-10T09:14:28;7.95;;;7.28;;
16804;SDS011;8520;50.102;20.010;2023-06-10T09:16:56;7.70;;;7.30;;
16804;SDS011;8520;50.102;20.010;2023-06-10T09:19:25;9.75;;;7.32;;
16804;SDS011;8520;50.102;20.010;2023-06-10T09:21:54;9.10;;;8.02;;
16804;SDS011;8520;50.102;20.010;2023-06-10T09:24:23;8.68;;;7.97;;
16804;SDS011;8520;50.102;20.010;2023-06-10T09:27:03;7.47;;;6.80;;
16804;SDS011;8520;50.102;20.010;2023-06-10T09:29:31;7.63;;;7.22;;
16804;SDS011;8520;50.102;20.010;2023-06-10T09:32:00;7.65;;;7.15;;
16804;SDS011;8520;50.102;20.010;2023-06-10T09:34:28;8.05;;;7.30;;
16804;SDS011;8520;50.102;20.010;2023-06-10T09:36:57;7.45;;;6.93;;
16804;SDS011;8520;50.102;20.010;2023-06-10T09:39:25;7.50;;;7.00;;
16804;SDS011;8520;50.102;20.010;2023-06-10T09:41:54;7.40;;;6.82;;
16804;SDS011;8520;50.102;20.010;2023-06-10T09:44:23;8.10;;;7.18;;
16804;SDS011;8520;50.102;20.010;2023-06-10T09:46:52;7.75;;;7.25;;
16804;SDS011;8520;50.102;20.010;2023-06-10T09:49:21;7.50;;;6.80;;
16804;SDS011;8520;50.102;20.010;2023-06-10T09:51:49;7.20;;;6.80;;
16804;SDS011;8520;50.102;20.010;2023-06-10T09:54:19;12.52;;;7.70;;
16804;SDS011;8520;50.102;20.010;2023-06-10T09:56:48;7.88;;;7.38;;
16804;SDS011;8520;50.102;20.010;2023-06-10T09:59:20;8.10;;;7.50;;
16804;SDS011;8520;50.102;20.010;2023-06-10T10:01:58;7.25;;;6.85;;
16804;SDS011;8520;50.102;20.010;2023-06-10T10:04:27;7.18;;;6.70;;
16804;SDS011;8520;50.102;20.010;2023-06-10T10:06:56;7.22;;;6.82;;
16804;SDS011;8520;50.102;20.010;2023-06-10T10:09:26;7.40;;;7.00;;
16804;SDS011;8520;50.102;20.010;2023-06-10T10:11:54;7.25;;;6.85;;
16804;SDS011;8520;50.102;20.010;2023-06-10T10:14:23;6.75;;;6.25;;
16804;SDS011;8520;50.102;20.010;2023-06-10T10:16:54;8.07;;;7.55;;
16804;SDS011;8520;50.102;20.010;2023-06-10T10:19:28;7.40;;;6.80;;
16804;SDS011;8520;50.102;20.010;2023-06-10T10:22:01;8.02;;;7.35;;
16804;SDS011;8520;50.102;20.010;2023-06-10T10:24:33;8.80;;;8.15;;
16804;SDS011;8520;50.102;20.010;2023-06-10T10:27:04;9.07;;;7.13;;
16804;SDS011;8520;50.102;20.010;2023-06-10T10:29:39;7.70;;;7.30;;
16804;SDS011;8520;50.102;20.010;2023-06-10T10:32:09;7.78;;;7.25;;
16804;SDS011;8520;50.102;20.010;2023-06-10T10:34:41;8.23;;;7.72;;
16804;SDS011;8520;50.102;20.010;2023-06-10T10:37:15;7.38;;;6.75;;
16804;SDS011;8520;50.102;20.010;2023-06-10T10:39:44;7.45;;;6.90;;
16804;SDS011;8520;50.102;20.010;2023-06-10T10:42:13;7.70;;;7.00;;
16804;SDS011;8520;50.102;20.010;2023-06-10T10:44:42;7.45;;;6.68;;
16804;SDS011;8520;50.102;20.010;2023-06-10T10:47:12;7.70;;;7.18;;
16804;SDS011;8520;50.102;20.010;2023-06-10T10:49:43;7.18;;;6.68;;
16804;SDS011;8520;50.102;20.010;2023-06-10T10:52:13;11.98;;;6.57;;
16804;SDS011;8520;50.102;20.010;2023-06-10T10:54:43;8.10;;;7.40;;
16804;SDS011;8520;50.102;20.010;2023-06-10T10:57:13;7.60;;;7.00;;
16804;SDS011;8520;50.102;20.010;2023-06-10T10:59:44;7.35;;;6.70;;
16804;SDS011;8520;50.102;20.010;2023-06-10T11:02:17;7.07;;;6.68;;
16804;SDS011;8520;50.102;20.010;2023-06-10T11:04:47;7.50;;;6.88;;
16804;SDS011;8520;50.102;20.010;2023-06-10T11:07:19;6.97;;;6.32;;
16804;SDS011;8520;50.102;20.010;2023-06-10T11:09:58;7.55;;;6.18;;
16804;SDS011;8520;50.102;20.010;2023-06-10T11:12:40;7.35;;;6.85;;
16804;SDS011;8520;50.102;20.010;2023-06-10T11:15:09;7.65;;;7.07;;
16804;SDS011;8520;50.102;20.010;2023-06-10T11:17:38;7.53;;;7.10;;
16804;SDS011;8520;50.102;20.010;2023-06-10T11:20:55;7.05;;;6.50;;
16804;SDS011;8520;50.102;20.010;2023-06-10T11:23:32;8.68;;;8.05;;
16804;SDS011;8520;50.102;20.010;2023-06-10T11:26:15;8.75;;;7.93;;
16804;SDS011;8520;50.102;20.010;2023-06-10T11:29:03;7.82;;;7.28;;
16804;SDS011;8520;50.102;20.010;2023-06-10T11:31:32;6.97;;;6.57;;
16804;SDS011;8520;50.102;20.010;2023-06-10T11:34:03;7.57;;;6.88;;
16804;SDS011;8520;50.102;20.010;2023-06-10T11:36:33;6.80;;;6.40;;
16804;SDS011;8520;50.102;20.010;2023-06-10T11:39:04;7.32;;;6.72;;
16804;SDS011;8520;50.102;20.010;2023-06-10T11:41:34;6.68;;;6.03;;
16804;SDS011;8520;50.102;20.010;2023-06-10T11:44:03;6.68;;;6.28;;
16804;SDS011;8520;50.102;20.010;2023-06-10T11:46:34;5.93;;;5.50;;
16804;SDS011;8520;50.102;20.010;2023-06-10T11:49:05;7.53;;;5.97;;
16804;SDS011;8520;50.102;20.010;2023-06-10T11:51:34;8.65;;;5.82;;
16804;SDS011;8520;50.102;20.010;2023-06-10T11:54:03;7.82;;;7.32;;
16804;SDS011;8520;50.102;20.010;2023-06-10T11:56:32;5.85;;;5.45;;
16804;SDS011;8520;50.102;20.010;2023-06-10T11:59:00;6.20;;;5.70;;
16804;SDS011;8520;50.102;20.010;2023-06-10T12:01:31;6.10;;;5.15;;
16804;SDS011;8520;50.102;20.010;2023-06-10T12:04:02;6.85;;;4.40;;
16804;SDS011;8520;50.102;20.010;2023-06-10T12:06:39;8.32;;;6.25;;
16804;SDS011;8520;50.102;20.010;2023-06-10T12:09:18;6.97;;;5.20;;
16804;SDS011;8520;50.102;20.010;2023-06-10T12:11:55;10.18;;;4.80;;
16804;SDS011;8520;50.102;20.010;2023-06-10T12:17:22;5.57;;;4.90;;
16804;SDS011;8520;50.102;20.010;2023-06-10T12:19:51;12.07;;;4.47;;
16804;SDS011;8520;50.102;20.010;2023-06-10T12:22:21;7.85;;;4.45;;
16804;SDS011;8520;50.102;20.010;2023-06-10T12:25:00;9.20;;;5.20;;
16804;SDS011;8520;50.102;20.010;2023-06-10T12:27:29;5.13;;;4.68;;
16804;SDS011;8520;50.102;20.010;2023-06-10T12:29:58;5.22;;;4.82;;
16804;SDS011;8520;50.102;20.010;2023-06-10T12:32:37;6.70;;;6.10;;
16804;SDS011;8520;50.102;20.010;2023-06-10T12:35:08;6.25;;;5.75;;
16804;SDS011;8520;50.102;20.010;2023-06-10T12:37:40;6.55;;;6.03;;
16804;SDS011;8520;50.102;20.010;2023-06-10T12:40:10;5.55;;;5.07;;
16804;SDS011;8520;50.102;20.010;2023-06-10T12:42:39;4.75;;;4.45;;
16804;SDS011;8520;50.102;20.010;2023-06-10T12:45:08;5.18;;;4.78;;
16804;SDS011;8520;50.102;20.010;2023-06-10T12:47:39;6.70;;;5.57;;
16804;SDS011;8520;50.102;20.010;2023-06-10T12:50:08;8.25;;;4.97;;
16804;SDS011;8520;50.102;20.010;2023-06-10T12:52:39;4.68;;;4.38;;
16804;SDS011;8520;50.102;20.010;2023-06-10T12:55:09;5.50;;;5.18;;
16804;SDS011;8520;50.102;20.010;2023-06-10T12:57:46;4.85;;;4.45;;
16804;SDS011;8520;50.102;20.010;2023-06-10T13:00:16;14.40;;;5.40;;
16804;SDS011;8520;50.102;20.010;2023-06-10T13:02:46;11.75;;;5.00;;
16804;SDS011;8520;50.102;20.010;2023-06-10T13:05:16;7.22;;;5.05;;
16804;SDS011;8520;50.102;20.010;2023-06-10T13:07:46;6.95;;;5.25;;
16804;SDS011;8520;50.102;20.010;2023-06-10T13:10:15;8.77;;;4.97;;
16804;SDS011;8520;50.102;20.010;2023-06-10T13:12:43;4.95;;;4.65;;
16804;SDS011;8520;50.102;20.010;2023-06-10T13:15:14;9.35;;;5.93;;
16804;SDS011;8520;50.102;20.010;2023-06-10T13:17:43;6.28;;;5.85;;
16804;SDS011;8520;50.102;20.010;2023-06-10T13:20:12;8.02;;;4.80;;
16804;SDS011;8520;50.102;20.010;2023-06-10T13:22:40;5.57;;;5.18;;
16804;SDS011;8520;50.102;20.010;2023-06-10T13:25:10;6.03;;;5.13;;
16804;SDS011;8520;50.102;20.010;2023-06-10T13:27:39;5.75;;;5.22;;
16804;SDS011;8520;50.102;20.010;2023-06-10T13:30:09;12.07;;;5.65;;
16804;SDS011;8520;50.102;20.010;2023-06-10T13:32:38;5.20;;;4.88;;
16804;SDS011;8520;50.102;20.010;2023-06-10T13:35:07;5.25;;;4.85;;
16804;SDS011;8520;50.102;20.010;2023-06-10T13:37:36;5.50;;;4.80;;
16804;SDS011;8520;50.102;20.010;2023-06-10T13:40:05;9.40;;;4.45;;
16804;SDS011;8520;50.102;20.010;2023-06-10T13:42:36;12.88;;;7.18;;
16804;SDS011;8520;50.102;20.010;2023-06-10T13:45:04;6.65;;;4.90;;
16804;SDS011;8520;50.102;20.010;2023-06-10T13:47:34;4.70;;;4.40;;
16804;SDS011;8520;50.102;20.010;2023-06-10T13:50:02;5.38;;;4.55;;
16804;SDS011;8520;50.102;20.010;2023-06-10T13:52:30;7.65;;;4.57;;
16804;SDS011;8520;50.102;20.010;2023-06-10T13:54:59;4.40;;;4.20;;
16804;SDS011;8520;50.102;20.010;2023-06-10T13:57:27;6.45;;;4.72;;
16804;SDS011;8520;50.102;20.010;2023-06-10T13:59:56;4.82;;;4.43;;
16804;SDS011;8520;50.102;20.010;2023-06-10T14:02:24;5.15;;;4.80;;
16804;SDS011;8520;50.102;20.010;2023-06-10T14:04:53;5.53;;;4.60;;
16804;SDS011;8520;50.102;20.010;2023-06-10T14:07:21;6.05;;;4.60;;
16804;SDS011;8520;50.102;20.010;2023-06-10T14:09:50;5.78;;;5.38;;
16804;SDS011;8520;50.102;20.010;2023-06-10T14:12:18;6.03;;;5.28;;
16804;SDS011;8520;50.102;20.010;2023-06-10T14:14:46;5.35;;;4.82;;
16804;SDS011;8520;50.102;20.010;2023-06-10T14:17:15;4.50;;;4.20;;
16804;SDS011;8520;50.102;20.010;2023-06-10T14:19:43;7.32;;;4.88;;
16804;SDS011;8520;50.102;20.010;2023-06-10T14:22:12;6.15;;;4.65;;
16804;SDS011;8520;50.102;20.010;2023-06-10T14:24:40;5.90;;;4.65;;
16804;SDS011;8520;50.102;20.010;2023-06-10T14:27:08;4.90;;;4.43;;
16804;SDS011;8520;50.102;20.010;2023-06-10T14:29:36;5.95;;;4.50;;
16804;SDS011;8520;50.102;20.010;2023-06-10T14:32:05;6.50;;;3.92;;
16804;SDS011;8520;50.102;20.010;2023-06-10T14:34:36;5.57;;;5.13;;
16804;SDS011;8520;50.102;20.010;2023-06-10T14:37:05;4.93;;;4.63;;
16804;SDS011;8520;50.102;20.010;2023-06-10T14:39:34;5.00;;;4.50;;
16804;SDS011;8520;50.102;20.010;2023-06-10T14:42:03;6.55;;;4.15;;
16804;SDS011;8520;50.102;20.010;2023-06-10T14:44:32;5.43;;;5.05;;